CheckWX is a tool to help pilots better visualize weather data.  It is not intended as a substitute for an official pre-flight weather briefing.

04:39:40 UTC

KEED TAF
Needles Airport
Needles, California, USA
KEED 222320Z 2300/2324 VRB05KT P6SM SCT200 FM230200 24006KT P6SM BKN200 FM231700 17007KT P6SM SCT200 FM232000 19011G20KT P6SM SCT200

Mar-23@
00:00 UTC

Mar-23 @ 00:00 UTC

Mar-23@
02:00 UTC

Mar-23 @ 02:00 UTC

KEED 222320Z 2300/2324 VRB05KT P6SM SCT200

Expired

Wind
  • Variable at 5 KTS
Cloud Levels
  • Scattered at 20,000' AGL

Mar-23@
02:00 UTC

Mar-23 @ 02:00 UTC

Mar-23@
17:00 UTC

Mar-23 @ 17:00 UTC

FM230200 24006KT P6SM BKN200

From

From Standard forecast or significant change

Wind
  • 240° at 6 KTS
Cloud Levels
  • Broken at 20,000' AGL

Mar-23@
17:00 UTC

Mar-23 @ 17:00 UTC

Mar-23@
20:00 UTC

Mar-23 @ 20:00 UTC

FM231700 17007KT P6SM SCT200

From

From Standard forecast or significant change

Wind
  • 170° at 7 KTS
Cloud Levels
  • Scattered at 20,000' AGL

Mar-23@
20:00 UTC

Mar-23 @ 20:00 UTC

Mar-24@
00:00 UTC

Mar-24 @ 00:00 UTC

FM232000 19011G20KT P6SM SCT200

From

From Standard forecast or significant change

Wind
  • 190° at 11 KTS
  • {Gusting to 20 KTS
Cloud Levels
  • Scattered at 20,000' AGL